Flight Track Log - Related Links

Times and Time Zones

All times are in EDT time to prevent confusion due to time zone crossing. See the N57346 flight status page for this flight to view local times or setup timezone preferences in your user account.

Time Position Orientation Groundspeed Altitude Reporting Facility
EDT Latitude Longitude Course Direction KTS MPH feet Rate Location/Type
Sun 11:42:19 AM 40.8975 -77.8186 290° West 79 91 5,000  Level New York Center
Sun 11:43:20 AM 40.8981 -77.8075 86° East 31 36 5,000 -1,210 Level New York Center
Sun 11:44:18 AM 40.8653 -77.8675 234° Southwest 31 36 2,600  Descending New York Center
Sun 11:45:19 AM 40.8761 -77.8986 295° West 127 146 5,000 744 Climbing New York Center
Sun 11:46:19 AM 40.8850 -77.9244 294° West 91 105 4,100 -98 Descending New York Center
Sun 11:47:00 AM 40.8855 -77.8162 290° West  Level Estimated
Sun 11:47:21 AM 40.8914 -77.9525 287° West 86 99 4,800  Level New York Center
Sun 11:48:18 AM 40.9039 -77.9894 294° West 92 106 5,100 224 Climbing New York Center
Sun 11:49:08 AM 40.9161 -78.0278 293° West 112 129 5,200 273 Climbing Cleveland Center
Sun 11:50:08 AM 40.9297 -78.0683 294° West 123 142 5,600 400 Climbing Cleveland Center
Sun 11:51:08 AM 40.9408 -78.1036 293° West 123 142 6,000 200 Climbing Cleveland Center
Sun 11:52:08 AM 40.9522 -78.1444 290° West 118 136 6,000 50 Level Cleveland Center
Sun 11:53:08 AM 40.9656 -78.1908 291° West 123 142 6,100 50 Climbing Cleveland Center
Sun 11:54:08 AM 40.9792 -78.2342 293° West 129 148 6,100 -50 Level Cleveland Center
Sun 11:55:08 AM 40.9925 -78.2806 291° West 129 148 6,000 -50 Descending Cleveland Center
Sun 11:56:08 AM 41.0058 -78.3242 292° West 129 148 6,000  Level Cleveland Center
Sun 11:57:08 AM 41.0192 -78.3678 292° West 129 148 6,000  Level Cleveland Center
Sun 11:58:08 AM 41.0325 -78.4114 292° West 129 148 6,000  Level Cleveland Center
Sun 11:59:08 AM 41.0458 -78.4522 293° West 129 148 6,000  Level Cleveland Center
Sun 12:00:08 PM 41.0547 -78.4850 290° West 116 133 6,000  Level Cleveland Center
Sun 12:01:10 PM 41.0703 -78.5258 297° West 111 128 6,000  Level Cleveland Center
Sun 12:02:08 PM 41.0933 -78.5442 329° Northwest 111 128 6,000  Level Cleveland Center
Sun 12:03:08 PM 41.1269 -78.5461 358° North 105 121 6,000  Level Cleveland Center
Sun 12:04:08 PM 41.1561 -78.5478 358° North 105 121 6,000  Level Cleveland Center
Sun 12:05:08 PM 41.1875 -78.5525 354° North 105 121 6,000  Level Cleveland Center
Sun 12:06:08 PM 41.2208 -78.5569 354° North 110 127 6,000  Level Cleveland Center
Sun 12:07:08 PM 41.2542 -78.5614 354° North 110 127 6,000  Level Cleveland Center
Sun 12:08:08 PM 41.2856 -78.5658 354° North 110 127 6,000  Level Cleveland Center
Sun 12:09:08 PM 41.3192 -78.5703 354° North 115 132 6,000  Level Cleveland Center
Sun 12:10:08 PM 41.3503 -78.5722 357° North 115 132 6,000  Level Cleveland Center
Sun 12:11:08 PM 41.3817 -78.5739 358° North 115 132 6,000  Level Cleveland Center
Sun 12:12:08 PM 41.4131 -78.5786 354° North 115 132 6,000  Level Cleveland Center
Sun 12:13:08 PM 41.4464 -78.5831 354° North 115 132 6,000 -50 Level Cleveland Center
Sun 12:14:08 PM 41.4778 -78.5850 357° North 110 127 5,900  Descending Cleveland Center
Sun 12:15:08 PM 41.5069 -78.5894 353° North 105 121 6,000 50 Climbing Cleveland Center
Sun 12:16:08 PM 41.5033 -78.6119 258° West 57 66 6,000 -100 Level Cleveland Center
Sun 12:17:08 PM 41.4697 -78.6017 167° South 47 54 5,800 -450 Descending Cleveland Center
Sun 12:18:08 PM 41.4342 -78.5917 168° South 102 117 5,100 -650 Descending Cleveland Center
Sun 12:19:08 PM 41.3964 -78.5847 172° South 133 153 4,500 -450 Descending Cleveland Center
Sun 12:20:08 PM 41.3608 -78.5775 171° South 139 160 4,200 -150 Descending Cleveland Center
Sun 12:21:08 PM 41.3319 -78.5894 197° South 134 154 4,200  Level Cleveland Center
Sun 12:22:08 PM 41.3031 -78.6094 207° Southwest 123 142 4,200  Level Cleveland Center
Sun 12:23:08 PM 41.2783 -78.6297 212° Southwest 117 135 4,200 -250 Level Cleveland Center
Sun 12:24:08 PM 41.2664 -78.6658 246° West 111 128 3,700 -350 Descending Cleveland Center
Sun 12:25:08 PM 41.2544 -78.6994 245° Southwest 106 122 3,500 250 Descending Cleveland Center
Sun 12:26:08 PM 41.2447 -78.7328 249° West 101 116 4,200 250 Climbing Cleveland Center
Sun 12:27:08 PM 41.2286 -78.7664 237° Southwest 101 116 4,000 -500 Descending Cleveland Center
Sun 12:28:08 PM 41.2167 -78.8028 246° West 106 122 3,200 -550 Descending Cleveland Center
Sun 12:29:08 PM 41.2025 -78.8306 236° Southwest 106 122 2,900 -450 Descending Cleveland Center
Sun 12:30:08 PM 41.1925 -78.8614 247° West 106 122 2,300 -450 Descending Cleveland Center
Sun 12:31:08 PM 41.1825 -78.8892 244° Southwest 92 106 2,000 300 Descending Cleveland Center
Sun 12:32:08 PM 41.1725 -78.9197 247° West 92 106 2,900 850 Climbing Cleveland Center
Sun 12:33:08 PM 41.1750 -78.9500 276° West 92 106 3,700 600 Climbing Cleveland Center
Sun 12:34:08 PM 41.1733 -78.9858 266° West 92 106 4,100 200 Climbing Cleveland Center
Sun 12:35:08 PM 41.1697 -79.0303 264° West 108 124 4,100 -50 Level Cleveland Center
Sun 12:36:08 PM 41.1683 -79.0797 268° West 122 140 4,000 -50 Descending Cleveland Center
Sun 12:37:08 PM 41.1669 -79.1267 268° West 129 148 4,000  Level Cleveland Center
Sun 12:38:08 PM 41.1633 -79.1739 264° West 129 148 4,000  Level Cleveland Center
Sun 12:39:08 PM 41.1619 -79.2206 268° West 129 148 4,000  Level Cleveland Center
Sun 12:40:08 PM 41.1603 -79.2675 267° West 134 154 4,000  Level Cleveland Center
Sun 12:41:08 PM 41.1567 -79.3228 265° West 140 161 4,000  Level Cleveland Center
Sun 12:42:08 PM 41.1531 -79.3697 264° West 140 161 4,000  Level Cleveland Center
Sun 12:43:08 PM 41.1494 -79.4167 264° West 140 161 4,000  Level Cleveland Center
Sun 12:44:08 PM 41.1436 -79.4608 260° West 135 155 4,000 200 Level Cleveland Center
Sun 12:45:08 PM 41.1103 -79.4669 188° South 106 122 4,400 550 Climbing Cleveland Center
Sun 12:46:08 PM 41.0997 -79.4425 120° Southeast 70 81 5,100 600 Climbing Cleveland Center
Sun 12:47:08 PM 41.0931 -79.4067 104° East 65 75 5,600 550 Climbing Cleveland Center
Sun 12:48:08 PM 41.0883 -79.3681 99° East 85 98 6,200 650 Climbing Cleveland Center
Sun 12:49:08 PM 41.0839 -79.3297 99° East 97 112 6,900 400 Climbing Cleveland Center
Sun 12:50:08 PM 41.0772 -79.2858 101° East 108 124 7,000 50 Climbing Cleveland Center
Sun 12:51:08 PM 41.0703 -79.2364 101° East 118 136 7,000  Level Cleveland Center
Sun 12:52:08 PM 41.0656 -79.1869 97° East 125 144 7,000  Level Cleveland Center
Sun 12:53:08 PM 41.0586 -79.1403 101° East 125 144 7,000  Level Cleveland Center
Sun 12:54:08 PM 41.0519 -79.0908 100° East 125 144 7,000  Level Cleveland Center
Sun 12:55:08 PM 41.0469 -79.0414 98° East 125 144 7,000 -50 Level Cleveland Center
Sun 12:56:08 PM 41.0400 -78.9919 101° East 125 144 6,900 -50 Descending Cleveland Center
Sun 12:57:08 PM 41.0353 -78.9453 98° East 125 144 6,900 50 Level Cleveland Center
Sun 12:58:08 PM 41.0261 -78.8931 103° East 125 144 7,000 50 Climbing Cleveland Center
Sun 12:59:08 PM 41.0211 -78.8439 98° East 125 144 7,000  Level Cleveland Center
Sun 01:00:08 PM 41.0142 -78.7972 101° East 125 144 7,000 -50 Level Cleveland Center
Sun 01:01:08 PM 41.0094 -78.7533 98° East 125 144 6,900 -36 Descending Cleveland Center
Sun 01:02:55 PM 40.9967 -78.6594 100° East 133 153 6,900  Level New York Center
Sun 01:03:56 PM 40.9892 -78.6147 103° East 138 159 6,900  Level New York Center
Sun 01:04:54 PM 40.9839 -78.5672 98° East 138 159 6,900  Level New York Center
Sun 01:05:56 PM 40.9769 -78.5169 100° East 138 159 6,900  Level New York Center
Sun 01:06:54 PM 40.9717 -78.4669 98° East 138 159 6,900  Level New York Center
Sun 01:07:55 PM 40.9647 -78.4167 100° East 138 159 6,900  Level New York Center
Sun 01:08:56 PM 40.9594 -78.3692 98° East 138 159 6,900  Level New York Center
Sun 01:09:57 PM 40.9522 -78.3189 101° East 138 159 6,900 -101 Level New York Center
Sun 01:10:55 PM 40.9469 -78.2689 98° East 133 153 6,700 -615 Descending New York Center
Sun 01:11:54 PM 40.9381 -78.2131 102° East 138 159 5,700 -950 Descending New York Center
Sun 01:12:55 PM 40.9306 -78.1656 102° East 138 159 4,800 -689 Descending New York Center
Sun 01:13:56 PM 40.9256 -78.1128 97° East 138 159 4,300 -344 Descending New York Center
Sun 01:14:57 PM 40.9200 -78.0681 99° East 132 152 4,100 -101 Descending New York Center
Sun 01:15:55 PM 40.9164 -78.0211 96° East 126 145 4,100  Level New York Center
Sun 01:16:56 PM 40.9189 -77.9828 85° East 121 139 4,100 50 Level New York Center
Sun 01:17:54 PM 40.9386 -77.9986 329° Northwest 57 66 4,200  Climbing New York Center
Sun 01:18:57 PM 40.9450 -78.0322 284° West 45 52 4,100  Descending New York Center
Sun 01:19:55 PM 40.9256 -78.0442 205° Southwest 54 62 4,200  Climbing New York Center
Sun 01:20:56 PM 40.9172 -78.0103 108° East 42 48 4,100 -198 Descending New York Center
Sun 01:21:56 PM 40.9114 -77.9683 100° East 80 92 3,800 -300 Descending New York Center
Sun 01:22:56 PM 40.9056 -77.9264 100° East 107 123 3,500 -305 Descending New York Center
Sun 01:23:54 PM 40.8975 -77.8872 105° East 112 129 3,200 -559 Descending New York Center
Sun 01:24:54 PM 40.8897 -77.8453 104° East 112 129 2,400 -496 Descending New York Center
Sun 01:25:55 PM 40.8831 -77.8144 106° East 112 129 2,200 -197 Descending New York Center

Login

Don't have an account? Register now (free) for customized features, flight alerts, and more!